Time;durP1;ratioP1;P1;durP2;ratioP2;P2;SDS_P1;SDS_P2;PMS_P1;PMS_P2;Temp;Humidity;BMP_temperature;BMP_pressure;BME280_temperature;BME280_humidity;BME280_pressure;Samples;Min_cycle;Max_cycle;Signal;HPM_P1;HPM_P2
2021/12/27 00:02:09;;;;;;;1.17;1.17;;;8.30;99.90;8.40;99976.00;;;;5057682;28;20242;-69
2021/12/27 00:04:46;;;;;;;0.50;0.50;;;8.30;99.90;8.30;99969.00;;;;5074650;28;20263;-69
2021/12/27 00:07:22;;;;;;;6.20;5.80;;;8.30;99.90;9.10;99978.00;;;;5074046;28;20173;-69
2021/12/27 00:10:00;;;;;;;0.90;0.90;;;8.60;99.90;8.70;99965.00;;;;5057869;28;20284;-69
2021/12/27 00:12:36;;;;;;;0.50;0.50;;;8.60;99.90;8.50;99957.00;;;;5075477;28;20211;-69
2021/12/27 00:15:13;;;;;;;1.70;1.60;;;8.40;99.90;8.60;99961.00;;;;5075607;28;20169;-69
2021/12/27 00:17:49;;;;;;;0.57;0.57;;;8.40;99.90;8.40;99963.00;;;;5074230;28;20179;-69
2021/12/27 00:20:20;;;;;;;0.50;0.50;;;8.40;99.90;8.30;99957.00;;;;5074032;28;20169;-69
2021/12/27 00:22:54;;;;;;;0.50;0.50;;;8.30;99.90;8.40;99956.00;;;;5074134;28;20216;-69
2021/12/27 00:25:33;;;;;;;0.60;0.60;;;8.40;99.90;8.50;99948.00;;;;5074050;28;20607;-69
2021/12/27 00:28:07;;;;;;;0.50;0.50;;;8.40;99.90;8.40;99938.00;;;;5074029;28;20187;-68
2021/12/27 00:30:44;;;;;;;0.77;0.77;;;8.40;99.90;8.30;99945.00;;;;5075354;28;20179;-68
2021/12/27 00:33:24;;;;;;;0.50;0.50;;;8.30;99.90;8.40;99945.00;;;;5057316;28;20288;-69
2021/12/27 00:36:01;;;;;;;0.70;0.70;;;8.40;99.90;8.40;99922.00;;;;5073981;28;20717;-69
2021/12/27 00:38:40;;;;;;;1.10;1.00;;;8.40;99.90;8.60;99940.00;;;;5073742;28;20168;-69
2021/12/27 00:41:16;;;;;;;0.90;0.90;;;8.50;99.90;8.40;99942.00;;;;5074086;28;20655;-69
2021/12/27 00:43:52;;;;;;;1.33;1.23;;;8.40;99.90;8.40;99893.00;;;;5074860;28;20638;-68
2021/12/27 00:46:31;;;;;;;0.50;0.50;;;8.40;99.90;8.30;99936.00;;;;5073692;28;20187;-69
2021/12/27 00:48:59;;;;;;;0.50;0.50;;;8.40;99.90;8.60;99918.00;;;;5073622;28;20640;-69
2021/12/27 00:51:31;;;;;;;0.50;0.50;;;8.50;99.90;8.50;99915.00;;;;5056755;28;20684;-69
2021/12/27 00:54:07;;;;;;;0.47;0.47;;;8.50;99.90;8.40;99919.00;;;;5074595;28;20639;-68
2021/12/27 00:56:42;;;;;;;0.80;0.80;;;8.40;99.90;8.70;99924.00;;;;5056098;28;20192;-68
2021/12/27 00:59:14;;;;;;;0.50;0.50;;;8.50;99.90;8.60;99878.00;;;;5074892;28;20255;-68
2021/12/27 01:01:45;;;;;;;0.90;0.90;;;8.50;99.90;8.60;99871.00;;;;5056797;28;20273;-69
2021/12/27 01:04:19;;;;;;;0.57;0.57;;;8.50;99.90;8.70;99918.00;;;;5072886;28;20632;-68
2021/12/27 01:06:54;;;;;;;0.80;0.80;;;8.60;99.90;8.50;99881.00;;;;5074629;28;20170;-68
2021/12/27 01:09:42;;;;;;;0.50;0.50;;;8.60;99.90;8.50;99909.00;;;;5073468;28;20214;-68
2021/12/27 01:15:10;;;;;;;0.77;0.77;;;8.50;99.90;8.40;99919.00;;;;5073432;28;20268;-68
2021/12/27 01:17:43;;;;;;;0.40;0.40;;;8.50;99.90;8.30;99907.00;;;;5073051;28;20163;-68
2021/12/27 01:20:22;;;;;;;0.40;0.40;;;8.50;99.90;8.70;99917.00;;;;5055974;28;20185;-68
2021/12/27 01:22:55;;;;;;;0.40;0.40;;;8.60;99.90;8.50;99906.00;;;;5073839;28;20223;-69
2021/12/27 01:25:32;;;;;;;0.40;0.40;;;8.60;99.90;8.60;99912.00;;;;5073131;28;20196;-68
2021/12/27 01:28:09;;;;;;;1.43;1.43;;;8.60;99.90;8.70;99923.00;;;;5073130;28;20163;-68
2021/12/27 01:30:48;;;;;;;1.77;1.67;;;8.70;99.90;8.60;99912.00;;;;5074052;28;20186;-68
2021/12/27 01:33:23;;;;;;;2.70;2.50;;;8.60;99.90;8.50;99920.00;;;;5072292;28;20215;-68
2021/12/27 01:36:01;;;;;;;0.50;0.50;;;8.60;99.90;8.70;99922.00;;;;5073224;28;20186;-68
2021/12/27 01:38:37;;;;;;;0.47;0.47;;;8.60;99.90;8.80;99888.00;;;;5073587;28;20646;-69
2021/12/27 01:41:16;;;;;;;0.40;0.40;;;8.70;99.90;9.00;99916.00;;;;5072886;28;20232;-68
2021/12/27 01:43:55;;;;;;;0.40;0.40;;;8.80;99.90;8.90;99920.00;;;;5073474;28;20226;-68
2021/12/27 01:46:28;;;;;;;0.47;0.47;;;8.80;99.90;8.70;99918.00;;;;5073687;28;20202;-68
2021/12/27 01:49:07;;;;;;;0.40;0.40;;;8.70;99.90;8.50;99918.00;;;;5073696;28;20163;-69
2021/12/27 01:51:47;;;;;;;0.53;0.53;;;8.70;99.90;8.60;99924.00;;;;5072403;28;20238;-69
2021/12/27 01:54:20;;;;;;;0.70;0.70;;;8.70;99.90;8.80;99907.00;;;;5072479;28;20183;-69
2021/12/27 01:56:52;;;;;;;1.23;1.13;;;8.70;99.90;8.80;99907.00;;;;5056297;28;20636;-69
2021/12/27 01:59:28;;;;;;;1.40;1.30;;;8.70;99.90;8.80;99894.00;;;;5072261;28;20201;-68
2021/12/27 02:02:08;;;;;;;1.03;0.97;;;8.80;99.90;8.50;99906.00;;;;5072091;28;20194;-69
2021/12/27 02:04:47;;;;;;;1.43;1.43;;;8.70;99.90;8.70;99905.00;;;;5072233;28;20183;-69
2021/12/27 02:07:23;;;;;;;0.70;0.70;;;8.80;99.90;8.80;99899.00;;;;5073293;28;20263;-69
2021/12/27 02:10:02;;;;;;;1.23;1.23;;;8.70;99.90;8.70;99899.00;;;;5072150;28;20722;-69
2021/12/27 02:12:34;;;;;;;0.60;0.60;;;8.80;99.90;8.80;99894.00;;;;5072167;28;20199;-69
2021/12/27 02:15:12;;;;;;;0.47;0.47;;;8.80;99.90;8.70;99896.00;;;;5072351;28;20279;-69
2021/12/27 02:17:52;;;;;;;0.40;0.40;;;8.80;99.90;8.80;99887.00;;;;5055164;28;20185;-69
2021/12/27 02:20:30;;;;;;;0.80;0.80;;;8.80;99.90;8.90;99844.00;;;;5072061;28;20540;-69
2021/12/27 02:23:02;;;;;;;0.80;0.80;;;8.90;99.90;8.70;99889.00;;;;5073302;28;20213;-69
2021/12/27 02:25:34;;;;;;;0.50;0.50;;;8.80;99.90;8.80;99890.00;;;;5073424;28;20177;-68
2021/12/27 02:28:12;;;;;;;0.93;0.93;;;8.80;99.90;8.90;99898.00;;;;5072046;28;20586;-69
2021/12/27 02:30:52;;;;;;;0.50;0.50;;;8.80;99.90;9.00;99887.00;;;;5072926;28;20179;-68
2021/12/27 02:33:26;;;;;;;0.67;0.67;;;8.90;99.90;9.10;99874.00;;;;5072059;28;20325;-69
2021/12/27 02:36:05;;;;;;;3.03;1.80;;;9.00;99.90;8.90;99889.00;;;;5072239;28;20180;-69
2021/12/27 02:38:44;;;;;;;0.80;0.80;;;8.90;99.90;9.10;99882.00;;;;5071971;28;20180;-69
2021/12/27 02:41:25;;;;;;;1.07;1.07;;;9.00;99.90;8.70;99879.00;;;;5071806;28;20714;-68
2021/12/27 02:43:59;;;;;;;0.50;0.50;;;8.80;99.90;9.00;99876.00;;;;5071840;28;20184;-68
2021/12/27 02:46:32;;;;;;;0.40;0.40;;;8.80;99.90;8.70;99864.00;;;;5072875;28;20179;-69
2021/12/27 02:49:09;;;;;;;0.43;0.43;;;8.80;99.90;9.00;99855.00;;;;5071921;28;20631;-69
2021/12/27 02:51:41;;;;;;;1.43;1.33;;;8.90;99.90;8.70;99862.00;;;;5071548;28;20194;-68
2021/12/27 02:54:18;;;;;;;0.83;0.83;;;8.80;99.90;8.60;99829.00;;;;5071691;28;20240;-68
2021/12/27 02:56:57;;;;;;;0.60;0.60;;;8.80;99.90;8.90;99851.00;;;;5055386;28;20186;-68
2021/12/27 02:59:31;;;;;;;1.57;1.47;;;8.80;99.90;8.60;99840.00;;;;5073140;28;20178;-68
2021/12/27 03:01:59;;;;;;;0.70;0.70;;;8.70;99.90;8.60;99848.00;;;;5071450;28;20183;-68
2021/12/27 03:04:45;;;;;;;0.97;0.97;;;8.70;99.90;8.70;99847.00;;;;5071344;28;20203;-68
2021/12/27 03:07:22;;;;;;;1.00;1.00;;;8.70;99.90;8.60;99842.00;;;;5071592;28;20516;-68
2021/12/27 03:09:59;;;;;;;1.43;1.27;;;8.70;99.90;8.50;99845.00;;;;5054905;28;20209;-68
2021/12/27 03:12:37;;;;;;;0.67;0.67;;;8.70;99.90;8.40;99822.00;;;;5071483;28;20206;-68
2021/12/27 03:15:16;;;;;;;1.23;1.13;;;8.60;99.90;8.40;99835.00;;;;5054792;28;20186;-68
2021/12/27 03:17:55;;;;;;;3.53;2.30;;;8.60;99.90;8.50;99840.00;;;;5054813;28;20183;-69
2021/12/27 03:20:30;;;;;;;1.37;1.37;;;8.60;99.90;8.50;99847.00;;;;5058411;28;20217;-68
2021/12/27 03:23:05;;;;;;;0.73;0.73;;;8.70;99.90;8.70;99836.00;;;;5076371;28;20179;-69
2021/12/27 03:25:41;;;;;;;3.10;2.40;;;8.70;99.90;8.40;99818.00;;;;5075054;28;20639;-69
2021/12/27 03:28:19;;;;;;;0.43;0.43;;;8.60;99.90;8.30;99834.00;;;;5075332;28;20182;-68
2021/12/27 03:30:57;;;;;;;1.03;0.70;;;8.60;99.90;8.50;99826.00;;;;5074993;28;20203;-68
2021/12/27 03:33:37;;;;;;;1.70;1.60;;;8.60;99.90;8.80;99827.00;;;;5076326;28;20258;-68
2021/12/27 03:36:14;;;;;;;0.70;0.70;;;8.70;99.90;8.50;99827.00;;;;5074958;28;20578;-68
2021/12/27 03:38:53;;;;;;;0.57;0.57;;;8.70;99.90;8.90;99810.00;;;;5075083;28;20213;-68
2021/12/27 03:41:30;;;;;;;1.80;1.70;;;8.70;99.90;8.30;99822.00;;;;5074946;28;20267;-68
2021/12/27 03:44:08;;;;;;;2.77;2.40;;;8.60;99.90;8.60;99807.00;;;;5074803;28;20173;-68
2021/12/27 03:46:41;;;;;;;1.13;1.13;;;8.60;99.90;8.90;99811.00;;;;5075081;28;20173;-68
2021/12/27 03:49:20;;;;;;;0.40;0.40;;;8.70;99.90;8.90;99808.00;;;;5075028;28;20180;-68
2021/12/27 03:52:00;;;;;;;0.40;0.40;;;8.80;99.90;8.60;99818.00;;;;5074616;28;20257;-68
2021/12/27 03:54:37;;;;;;;0.40;0.40;;;8.70;99.90;9.00;99808.00;;;;5075826;28;20189;-68
2021/12/27 03:57:13;;;;;;;0.50;0.50;;;8.80;99.90;8.90;99801.00;;;;5074521;28;20179;-68
2021/12/27 04:02:22;;;;;;;2.30;2.20;;;8.80;99.90;9.00;99800.00;;;;5074520;28;20737;-68
2021/12/27 04:05:02;;;;;;;0.40;0.40;;;8.80;99.90;8.80;99792.00;;;;5074569;28;20169;-68
2021/12/27 04:07:39;;;;;;;0.40;0.40;;;8.80;99.90;8.70;99802.00;;;;5075449;28;20555;-68
2021/12/27 04:10:13;;;;;;;0.63;0.63;;;8.80;99.90;8.70;99806.00;;;;5075772;28;20184;-68
2021/12/27 04:12:50;;;;;;;3.40;2.20;;;8.70;99.90;8.70;99806.00;;;;5074063;28;20204;-69
2021/12/27 04:15:27;;;;;;;0.40;0.40;;;8.70;99.90;8.60;99788.00;;;;5075272;28;20554;-68
2021/12/27 04:17:59;;;;;;;2.30;2.20;;;8.80;99.90;8.80;99751.00;;;;5075289;28;20543;-68
2021/12/27 04:20:36;;;;;;;1.03;0.93;;;8.80;99.90;9.10;99804.00;;;;5074063;28;20175;-68
2021/12/27 04:23:05;;;;;;;2.23;0.97;;;8.80;99.90;9.00;99795.00;;;;5074320;28;20188;-68
2021/12/27 04:25:47;;;;;;;0.73;0.73;;;8.90;99.90;8.80;99792.00;;;;5074109;28;20173;-68
2021/12/27 04:28:20;;;;;;;1.33;1.33;;;8.80;99.90;8.80;99799.00;;;;5074870;28;20179;-69
2021/12/27 04:31:05;;;;;;;3.83;2.80;;;8.80;99.90;8.80;99793.00;;;;5075261;28;20569;-68
2021/12/27 04:33:41;;;;;;;5.73;3.90;;;8.80;99.90;8.40;99791.00;;;;5057477;28;20576;-68
2021/12/27 04:36:19;;;;;;;3.40;1.73;;;8.70;99.90;8.40;99783.00;;;;5057264;28;20663;-68
2021/12/27 04:38:56;;;;;;;12.57;1.93;;;8.70;99.90;8.40;99795.00;;;;5075143;28;20184;-68
2021/12/27 04:41:31;;;;;;;1.90;1.80;;;8.70;99.90;8.50;99793.00;;;;5075210;28;20182;-68
2021/12/27 04:44:10;;;;;;;3.57;3.13;;;8.70;99.90;8.60;99791.00;;;;5074834;28;20247;-68
2021/12/27 04:46:44;;;;;;;1.80;1.70;;;8.80;99.90;8.70;99789.00;;;;5073607;28;20196;-68
2021/12/27 04:49:21;;;;;;;4.07;3.73;;;8.80;99.90;8.60;99781.00;;;;5073719;28;20235;-68
2021/12/27 04:52:00;;;;;;;0.87;0.87;;;8.70;99.90;8.50;99765.00;;;;5073487;28;20197;-68
2021/12/27 04:54:34;;;;;;;4.07;2.93;;;8.70;99.90;8.40;99782.00;;;;5073721;28;20183;-68
2021/12/27 04:57:14;;;;;;;1.13;1.13;;;8.60;99.90;8.50;99760.00;;;;5073658;28;20197;-68
2021/12/27 04:59:51;;;;;;;5.70;2.93;;;8.60;99.90;8.40;99797.00;;;;5073244;28;20564;-68
2021/12/27 05:02:27;;;;;;;38.40;4.17;;;8.70;99.90;8.30;99798.00;;;;5073208;28;20233;-68
2021/12/27 05:05:03;;;;;;;1.80;1.70;;;8.60;99.90;8.50;99790.00;;;;5074410;28;20202;-68
2021/12/27 05:07:44;;;;;;;2.23;1.50;;;8.60;99.90;8.60;99791.00;;;;5056712;28;20269;-68
2021/12/27 05:10:20;;;;;;;1.87;1.77;;;8.70;99.90;8.50;99803.00;;;;5073232;28;20179;-69
2021/12/27 05:12:52;;;;;;;0.70;0.70;;;8.70;99.90;8.60;99793.00;;;;5072936;28;20257;-69
2021/12/27 05:15:23;;;;;;;0.90;0.90;;;8.70;99.90;8.40;99805.00;;;;5074469;28;20182;-69
2021/12/27 05:17:56;;;;;;;3.80;1.47;;;8.70;99.90;8.30;99804.00;;;;5073000;28;20191;-69
2021/12/27 05:20:30;;;;;;;2.27;1.47;;;8.60;99.90;8.30;99799.00;;;;5072855;28;20179;-69
2021/12/27 05:23:04;;;;;;;2.60;1.60;;;8.50;99.90;8.20;99810.00;;;;5073065;28;20177;-68
2021/12/27 05:25:40;;;;;;;3.10;1.73;;;8.50;99.90;8.30;99800.00;;;;5074235;28;20182;-68
2021/12/27 05:28:18;;;;;;;3.70;2.10;;;8.50;99.90;8.30;99806.00;;;;5072999;28;20171;-68
2021/12/27 05:30:57;;;;;;;1.43;0.97;;;8.50;99.90;8.30;99789.00;;;;5073804;28;20185;-68
2021/12/27 05:33:31;;;;;;;0.40;0.40;;;8.60;99.90;8.50;99786.00;;;;5072987;28;20199;-68
2021/12/27 05:36:08;;;;;;;0.40;0.40;;;8.60;99.90;8.30;99776.00;;;;5074437;28;20207;-68
2021/12/27 05:38:47;;;;;;;0.93;0.93;;;8.50;99.90;8.50;99777.00;;;;5074142;28;20165;-68
2021/12/27 05:41:24;;;;;;;1.47;1.43;;;8.60;99.90;8.50;99776.00;;;;5071856;28;20174;-68
2021/12/27 05:44:01;;;;;;;1.00;1.00;;;8.60;99.90;8.50;99720.00;;;;5073733;28;20178;-68
2021/12/27 05:46:39;;;;;;;0.73;0.73;;;8.60;99.90;8.50;99770.00;;;;5073896;28;20178;-68
2021/12/27 05:49:15;;;;;;;8.43;3.60;;;8.60;99.90;8.50;99783.00;;;;5073584;28;20174;-68
2021/12/27 05:51:53;;;;;;;0.40;0.40;;;8.60;99.90;8.40;99773.00;;;;5073823;28;20205;-68
2021/12/27 05:54:32;;;;;;;1.50;1.50;;;8.60;99.90;8.40;99768.00;;;;5072083;28;20237;-68
2021/12/27 05:57:03;;;;;;;2.97;1.23;;;8.60;99.90;8.40;99769.00;;;;5072494;28;20651;-68
2021/12/27 05:59:42;;;;;;;0.50;0.50;;;8.60;99.90;8.50;99725.00;;;;5072245;28;20213;-68
2021/12/27 06:02:20;;;;;;;3.23;3.03;;;8.60;99.90;8.40;99768.00;;;;5055612;28;20223;-68
2021/12/27 06:04:57;;;;;;;5.53;3.03;;;8.60;99.90;8.40;99771.00;;;;5073519;28;20209;-68
2021/12/27 06:07:35;;;;;;;2.13;0.70;;;8.60;99.90;8.30;99760.00;;;;5072217;28;20175;-69
2021/12/27 06:10:10;;;;;;;1.13;1.13;;;8.60;99.90;8.30;99762.00;;;;5071656;28;20248;-68
2021/12/27 06:12:44;;;;;;;1.27;1.17;;;8.50;99.90;8.50;99774.00;;;;5072619;28;20661;-69
2021/12/27 06:15:18;;;;;;;0.80;0.80;;;8.70;99.90;8.50;99757.00;;;;5071812;28;20196;-68
2021/12/27 06:17:49;;;;;;;2.07;1.97;;;8.70;99.90;8.70;99747.00;;;;5055147;28;20193;-68
2021/12/27 06:20:23;;;;;;;2.03;1.67;;;8.70;99.90;8.50;99741.00;;;;5071933;28;20182;-69
2021/12/27 06:23:00;;;;;;;0.50;0.50;;;8.70;99.90;8.50;99703.00;;;;5072885;28;20208;-69
2021/12/27 06:25:37;;;;;;;0.70;0.70;;;8.60;99.90;8.60;99741.00;;;;5072287;28;20196;-68
2021/12/27 06:28:06;;;;;;;0.80;0.80;;;8.70;99.90;8.70;99738.00;;;;5072202;28;20220;-68
2021/12/27 06:30:41;;;;;;;9.17;2.40;;;8.80;99.90;8.60;99730.00;;;;5071998;28;20195;-68
2021/12/27 06:33:16;;;;;;;0.40;0.40;;;8.70;99.90;8.80;99724.00;;;;5071917;28;20218;-68
2021/12/27 06:35:53;;;;;;;1.97;1.87;;;8.80;99.90;8.60;99734.00;;;;5072153;28;20186;-68
2021/12/27 06:38:31;;;;;;;0.50;0.50;;;8.80;99.90;8.90;99683.00;;;;5071594;28;20186;-68
2021/12/27 06:41:08;;;;;;;0.60;0.60;;;8.80;99.90;8.80;99681.00;;;;5055491;28;20190;-68
2021/12/27 06:43:47;;;;;;;0.40;0.40;;;8.90;99.90;9.00;99697.00;;;;5072146;28;20189;-68
2021/12/27 06:46:21;;;;;;;0.50;0.50;;;8.90;99.90;9.00;99716.00;;;;5071781;28;20334;-68
2021/12/27 06:49:00;;;;;;;0.50;0.50;;;9.00;99.90;9.10;99721.00;;;;5071956;28;20606;-68
2021/12/27 06:51:40;;;;;;;0.57;0.57;;;8.90;99.90;9.10;99715.00;;;;5055248;28;20209;-68
2021/12/27 06:54:16;;;;;;;0.70;0.70;;;9.00;99.90;9.40;99647.00;;;;5074252;28;20214;-68
2021/12/27 06:56:45;;;;;;;0.57;0.57;;;9.00;99.90;9.70;99689.00;;;;5077008;28;20181;-68
2021/12/27 06:59:20;;;;;;;0.50;0.50;;;9.30;99.90;9.60;99690.00;;;;5075825;28;20187;-68
2021/12/27 07:01:57;;;;;;;0.60;0.60;;;9.30;99.90;9.30;99681.00;;;;5059017;28;20185;-68
2021/12/27 07:04:34;;;;;;;0.50;0.50;;;9.20;99.90;9.50;99676.00;;;;5075548;28;20159;-68
2021/12/27 07:07:07;;;;;;;0.53;0.53;;;9.10;99.90;9.60;99664.00;;;;5076703;28;20264;-68
2021/12/27 07:09:48;;;;;;;0.77;0.77;;;9.20;99.90;9.00;99658.00;;;;5075670;28;20181;-68
2021/12/27 07:12:27;;;;;;;0.90;0.90;;;9.10;99.90;9.30;99645.00;;;;5059449;28;20217;-68
2021/12/27 07:15:00;;;;;;;0.50;0.50;;;9.00;99.90;8.60;99641.00;;;;5075414;28;20177;-68
2021/12/27 07:17:37;;;;;;;0.70;0.70;;;8.90;99.90;9.00;99631.00;;;;5075357;28;20550;-68
2021/12/27 07:20:09;;;;;;;0.70;0.70;;;8.80;99.90;9.30;99638.00;;;;5075343;28;20619;-68
2021/12/27 07:22:50;;;;;;;0.50;0.50;;;8.80;99.90;9.00;99641.00;;;;5076126;28;20179;-68
2021/12/27 07:25:21;;;;;;;0.60;0.60;;;8.80;99.90;9.10;99643.00;;;;5058985;28;20173;-68
2021/12/27 07:27:54;;;;;;;1.53;1.23;;;8.80;99.90;8.90;99646.00;;;;5058563;28;20178;-70
2021/12/27 07:30:28;;;;;;;0.60;0.60;;;8.70;99.90;9.10;99648.00;;;;5058332;28;20240;-69
2021/12/27 07:33:03;;;;;;;0.90;0.90;;;8.70;99.90;9.20;99647.00;;;;5076055;28;20206;-70
2021/12/27 07:35:38;;;;;;;0.83;0.83;;;8.80;99.90;9.10;99645.00;;;;5058363;28;20175;-69
2021/12/27 07:38:15;;;;;;;0.60;0.60;;;8.80;99.90;9.20;99640.00;;;;5074749;28;20165;-70
2021/12/27 07:40:52;;;;;;;1.00;1.00;;;8.80;99.90;9.00;99648.00;;;;5058307;28;20277;-70
2021/12/27 07:43:28;;;;;;;0.60;0.60;;;8.80;99.90;9.20;99655.00;;;;5057958;28;20251;-70
2021/12/27 07:46:10;;;;;;;0.50;0.50;;;8.80;99.90;8.90;99651.00;;;;5075430;28;20162;-70
2021/12/27 07:48:47;;;;;;;0.97;0.97;;;8.80;99.90;8.90;99649.00;;;;5058896;28;20227;-69
2021/12/27 07:51:21;;;;;;;0.60;0.60;;;8.70;99.90;9.30;99647.00;;;;5075447;28;20192;-70
2021/12/27 07:54:00;;;;;;;0.50;0.50;;;8.80;99.90;8.90;99655.00;;;;5074792;28;20180;-70
2021/12/27 07:56:43;;;;;;;0.90;0.90;;;8.80;99.90;8.70;99662.00;;;;5074649;28;20159;-69
2021/12/27 07:59:21;;;;;;;0.57;0.57;;;8.70;99.90;8.80;99649.00;;;;5075700;28;20185;-69
2021/12/27 08:01:57;;;;;;;0.53;0.53;;;8.70;99.90;8.70;99654.00;;;;5058276;28;20204;-72
2021/12/27 08:04:33;;;;;;;0.50;0.50;;;8.60;99.90;9.20;99646.00;;;;5057178;28;20195;-71
2021/12/27 08:07:04;;;;;;;0.50;0.50;;;8.70;99.90;9.00;99663.00;;;;5074218;28;20268;-69
2021/12/27 08:09:40;;;;;;;0.50;0.50;;;8.80;99.90;9.10;99656.00;;;;5057963;28;20657;-70
2021/12/27 08:12:14;;;;;;;1.73;1.63;;;8.80;99.90;9.30;99659.00;;;;5074262;28;20590;-70
2021/12/27 08:14:51;;;;;;;0.50;0.50;;;8.90;99.90;9.30;99655.00;;;;5074326;28;20633;-71
2021/12/27 08:17:25;;;;;;;1.07;0.97;;;9.00;99.90;9.30;99655.00;;;;5057702;28;20186;-70
2021/12/27 08:20:02;;;;;;;1.00;1.00;;;9.00;99.90;9.20;99654.00;;;;5073915;28;20183;-70
2021/12/27 08:22:36;;;;;;;2.20;1.97;;;9.10;99.90;9.10;99639.00;;;;5074211;28;20162;-70
2021/12/27 08:25:16;;;;;;;0.83;0.83;;;9.00;99.90;8.80;99635.00;;;;5075418;28;20291;-70
2021/12/27 08:27:50;;;;;;;1.50;1.40;;;9.00;99.90;8.80;99632.00;;;;5074611;28;20194;-69
2021/12/27 08:30:22;;;;;;;2.77;1.13;;;8.90;99.90;8.90;99625.00;;;;5075447;28;20257;-67
2021/12/27 08:32:58;;;;;;;1.07;1.03;;;8.90;99.90;9.00;99635.00;;;;5090196;28;20221;-69
2021/12/27 08:35:32;;;;;;;3.07;2.63;;;8.80;99.90;8.60;99594.00;;;;5057756;28;20228;-69
2021/12/27 08:38:11;;;;;;;1.50;1.47;;;8.80;99.90;8.70;99634.00;;;;5073681;28;20186;-68
2021/12/27 08:40:48;;;;;;;1.33;1.33;;;8.60;99.90;8.50;99636.00;;;;5074277;28;20171;-69
2021/12/27 08:43:27;;;;;;;1.90;1.43;;;8.70;99.90;9.00;99624.00;;;;5056870;28;20626;-69
2021/12/27 08:46:03;;;;;;;2.33;1.80;;;8.80;99.90;8.80;99631.00;;;;5073986;28;20166;-69
2021/12/27 08:48:40;;;;;;;0.50;0.50;;;8.70;99.90;8.40;99626.00;;;;5073522;28;20271;-69
2021/12/27 08:51:16;;;;;;;0.93;0.93;;;8.60;99.90;8.60;99635.00;;;;5073799;28;20572;-68
2021/12/27 08:53:52;;;;;;;2.30;1.60;;;8.60;99.90;8.70;99624.00;;;;5073627;28;20179;-69
2021/12/27 08:56:26;;;;;;;0.60;0.60;;;8.60;99.90;8.80;99632.00;;;;5057032;28;20185;-70
2021/12/27 08:59:15;;;;;;;3.33;2.10;;;8.70;99.90;8.40;99616.00;;;;5073165;28;20178;-69
2021/12/27 09:01:51;;;;;;;1.63;1.53;;;8.60;99.90;8.80;99567.00;;;;5073774;28;20258;-69
2021/12/27 09:04:28;;;;;;;1.43;1.40;;;8.60;99.90;8.20;99554.00;;;;5090808;28;20186;-69
2021/12/27 09:07:05;;;;;;;1.93;1.83;;;8.60;99.90;8.50;99603.00;;;;5073346;28;20187;-70
2021/12/27 09:09:43;;;;;;;2.03;1.93;;;8.60;99.90;8.60;99605.00;;;;5072937;28;20193;-68
2021/12/27 09:12:20;;;;;;;0.57;0.57;;;8.60;99.90;8.60;99609.00;;;;5073031;28;20300;-68
2021/12/27 09:14:58;;;;;;;1.60;1.50;;;8.70;99.90;8.70;99622.00;;;;5073022;28;20626;-67
2021/12/27 09:17:35;;;;;;;5.00;2.30;;;8.60;99.90;8.80;99613.00;;;;5072115;28;20513;-70
2021/12/27 09:20:12;;;;;;;2.07;1.97;;;8.70;99.90;8.90;99616.00;;;;5056390;28;20181;-69
2021/12/27 09:22:52;;;;;;;5.93;3.97;;;8.70;99.90;8.70;99599.00;;;;5074255;28;20273;-68
2021/12/27 09:25:26;;;;;;;2.13;1.63;;;8.70;99.90;8.70;99601.00;;;;5074100;28;20276;-69
2021/12/27 09:27:58;;;;;;;1.83;1.67;;;8.70;99.90;8.60;99606.00;;;;5056470;28;20550;-69
2021/12/27 09:30:27;;;;;;;1.07;1.07;;;8.70;99.90;8.80;99587.00;;;;5073683;28;20532;-69
2021/12/27 09:33:04;;;;;;;0.70;0.70;;;8.70;99.90;9.20;99607.00;;;;5072335;28;20669;-69
2021/12/27 09:35:36;;;;;;;3.13;2.93;;;8.90;99.90;9.00;99611.00;;;;5074410;28;20224;-69
2021/12/27 09:38:13;;;;;;;0.50;0.50;;;9.00;99.90;9.10;99617.00;;;;5072834;28;20173;-69
2021/12/27 09:40:49;;;;;;;0.80;0.80;;;9.00;99.90;9.30;99619.00;;;;5056177;28;20201;-69
2021/12/27 09:43:26;;;;;;;0.60;0.60;;;9.20;99.90;9.30;99614.00;;;;5072639;28;20273;-69
2021/12/27 09:46:17;;;;;;;1.07;1.07;;;9.20;99.90;9.30;99623.00;;;;5056385;28;20272;-69
2021/12/27 09:48:59;;;;;;;0.50;0.50;;;9.20;99.90;9.90;99630.00;;;;5072476;28;20194;-69
2021/12/27 09:51:37;;;;;;;0.80;0.80;;;9.40;99.90;9.60;99625.00;;;;5072921;28;20265;-68
2021/12/27 09:54:13;;;;;;;0.77;0.77;;;9.50;99.90;9.70;99615.00;;;;5072439;28;20191;-68
2021/12/27 09:56:53;;;;;;;1.17;1.17;;;9.60;99.90;9.60;99617.00;;;;5072646;28;20171;-68
2021/12/27 09:59:31;;;;;;;4.10;2.83;;;9.60;99.90;9.40;99621.00;;;;5056142;28;20553;-69
2021/12/27 10:02:07;;;;;;;1.23;1.13;;;9.50;99.90;9.60;99622.00;;;;5072537;28;20246;-69
2021/12/27 10:04:49;;;;;;;0.80;0.80;;;9.50;99.90;9.80;99617.00;;;;5073574;28;20181;-69
2021/12/27 10:07:33;;;;;;;2.17;2.07;;;9.60;99.90;9.50;99619.00;;;;5056142;28;20188;-69
2021/12/27 10:10:09;;;;;;;2.13;1.97;;;9.60;99.90;9.60;99612.00;;;;5073316;28;20178;-68
2021/12/27 10:12:41;;;;;;;0.80;0.80;;;9.50;99.90;9.70;99600.00;;;;5055340;28;20203;-69
2021/12/27 10:15:23;;;;;;;1.80;1.70;;;9.60;99.90;9.80;99598.00;;;;5071782;28;20185;-70
2021/12/27 10:17:54;;;;;;;0.60;0.60;;;9.60;99.90;10.00;99606.00;;;;5072129;28;20198;-69
2021/12/27 10:20:30;;;;;;;0.60;0.60;;;9.80;99.90;9.50;99605.00;;;;5073201;28;20189;-68
2021/12/27 10:33:26;;;;;;;0.60;0.60;;;9.20;99.90;9.10;99601.00;;;;5051308;28;20553;-69
2021/12/27 10:36:08;;;;;;;1.43;1.43;;;9.30;99.90;9.70;99569.00;;;;5050598;28;20189;-69
2021/12/27 10:38:43;;;;;;;0.83;0.83;;;9.60;99.90;10.10;99589.00;;;;5049468;28;20184;-69
2021/12/27 10:41:23;;;;;;;0.60;0.60;;;9.80;99.90;9.90;99577.00;;;;5050743;28;20207;-69
2021/12/27 10:43:59;;;;;;;0.70;0.70;;;9.90;99.90;9.90;99574.00;;;;5050536;28;20629;-69
2021/12/27 10:46:39;;;;;;;0.70;0.70;;;10.00;99.90;9.90;99551.00;;;;5050260;28;20633;-69
2021/12/27 10:49:13;;;;;;;0.90;0.90;;;9.90;99.90;10.10;99549.00;;;;5049277;28;20224;-68
2021/12/27 10:52:00;;;;;;;0.77;0.77;;;9.90;99.90;10.00;99531.00;;;;5049212;28;20204;-68
2021/12/27 10:54:37;;;;;;;0.63;0.63;;;10.00;99.90;10.30;99539.00;;;;5049097;28;20161;-69
2021/12/27 10:57:25;;;;;;;1.20;1.20;;;10.10;99.90;9.70;99539.00;;;;5045680;28;20227;-68
2021/12/27 11:00:47;;;;;;;1.47;1.37;;;10.00;99.90;10.00;99539.00;;;;5028757;28;20183;-68
2021/12/27 11:03:34;;;;;;;2.60;1.80;;;9.90;99.90;10.20;99532.00;;;;5044891;28;20335;-68
2021/12/27 11:06:11;;;;;;;1.43;1.33;;;10.00;99.90;10.10;99530.00;;;;5028863;28;20173;-70
2021/12/27 11:08:44;;;;;;;2.00;1.67;;;10.10;99.90;10.30;99532.00;;;;5029084;28;20190;-70
2021/12/27 11:11:23;;;;;;;1.60;1.50;;;10.10;99.90;10.20;99535.00;;;;5028930;28;20252;-70
2021/12/27 11:14:06;;;;;;;3.17;2.47;;;10.10;99.90;10.30;99532.00;;;;5028930;28;20249;-69
2021/12/27 11:16:41;;;;;;;1.87;1.77;;;10.20;99.90;10.70;99527.00;;;;5028672;28;20178;-70
2021/12/27 11:19:15;;;;;;;0.80;0.80;;;10.40;99.90;10.90;99520.00;;;;5029001;28;20206;-68
2021/12/27 11:21:52;;;;;;;1.23;1.13;;;10.50;99.90;10.40;99513.00;;;;5029902;28;20245;-69
2021/12/27 11:24:26;;;;;;;2.27;1.53;;;10.40;99.90;10.60;99512.00;;;;5028458;28;20202;-67
2021/12/27 11:27:13;;;;;;;0.90;0.90;;;10.50;99.90;10.30;99524.00;;;;5028458;28;20206;-68
2021/12/27 11:30:07;;;;;;;1.43;1.33;;;10.30;99.90;10.00;99529.00;;;;5028951;28;20166;-69
2021/12/27 11:33:08;;;;;;;0.87;0.87;;;10.20;99.90;10.20;99518.00;;;;5028253;28;20233;-68
2021/12/27 11:35:59;;;;;;;0.50;0.50;;;10.20;99.90;10.20;99528.00;;;;5028708;28;20185;-69
2021/12/27 11:38:44;;;;;;;1.10;1.00;;;10.20;99.90;10.10;99532.00;;;;5029627;28;20170;-68
2021/12/27 11:41:31;;;;;;;0.77;0.77;;;10.20;99.90;10.40;99515.00;;;;5028630;28;20264;-68
2021/12/27 11:44:19;;;;;;;0.93;0.93;;;10.30;99.90;10.40;99521.00;;;;5018643;28;20176;-68
2021/12/27 11:47:11;;;;;;;0.50;0.50;;;10.20;99.90;10.40;99515.00;;;;5015331;28;20179;-68
2021/12/27 11:50:07;;;;;;;1.13;1.07;;;10.30;99.90;9.90;99520.00;;;;5014801;28;20649;-69
2021/12/27 11:52:47;;;;;;;1.40;0.93;;;10.10;99.90;10.40;99514.00;;;;5016204;28;20203;-70
2021/12/27 11:55:43;;;;;;;1.23;1.23;;;10.20;99.90;10.40;99516.00;;;;5015303;28;20168;-69
2021/12/27 11:58:50;;;;;;;1.00;1.00;;;10.30;99.90;10.50;99491.00;;;;5014768;28;20655;-69
2021/12/27 12:01:25;;;;;;;0.67;0.67;;;10.30;99.90;10.20;99511.00;;;;5015034;28;20195;-69
2021/12/27 12:04:02;;;;;;;0.63;0.63;;;10.40;99.90;10.60;99508.00;;;;5031458;28;20187;-69
2021/12/27 12:06:45;;;;;;;0.73;0.73;;;10.40;99.90;10.60;99495.00;;;;5031058;28;20191;-71
2021/12/27 12:09:22;;;;;;;2.20;2.00;;;10.50;99.90;10.10;99503.00;;;;5014905;28;20214;-68